Kezdőlap
METAR-TAF:

METAR-TAF

Repülőterek :

Marham, Anglia

földrajzi szélesség: 52-39N, földrajzi hosszúság: 000-34E, magasság: 23 m

Jelenlegi meteorológiai megfigyelések

A jelentés 1 órával és 18 perccel ezelõtt készült, 14:50 UTC
Délnyugati szél 10 kt
Hőmérséklet 7°C
Páratartalom 81%
Légköri nyomás 996 hPa
Látótávolság 10 km, vagy több

METAR: EGYM 151450Z AUTO 22010KT 9999 FEW180/// 07/04 Q0996

Idő: 16:08 (16:08 UTC)


TAF: hiányzik

Meteorológiai megfigyelések és előrejelzések több, mint 4000 repülőtéren (METAR és TAF jelentéseket).

A térképen piros és sárga pontok jelzik az elérhető meteorológiai állomásokat.

Mozgassa az egeret a pont fölött, hogy megjelenjen az állomás neve.

Azután kattintson az időjárási megfigyelések és előrejelzések megtekintéséhez.

A térkép megváltoztatása: kattintson a fekete keresztel jelölt zöld gombra ráközelítéshez, a vonallal jelölt zöld gombra távolításhoz, vagy a zöld nyilakra a szomszédos térképek eléréséhez.


METAR-TAF: